Matthews, MO (63867)

7:13 AM CST on February 08, 2016 (GMT -0600)
SEMO Electric Coop | | Change Station
CLOSE
Current Station
Personal Weather Station
Location: Sikeston, MO
Elevation: 338 ft
Nearby Weather Stations

Elev 338 ft 36.85 °N, 89.58 °W | Updated 3 minutes ago

Mostly Cloudy
Mostly Cloudy
37.6 °F
Feels Like 33 °F
N
6.0
Wind Variable Wind from NNE
Gusts 6.0 mph

Today
High -- | Low -- °F
--% Chance of Precip.
Yesterday
High -- | Low -- °F
Precip. -- in
Pressure 29.83 in
Visibility 10.0 miles
Clouds Scattered Clouds 4500 ft
Mostly Cloudy 5000 ft
Overcast 6000 ft
Windchill 33 °F
Dew Point 26 °F
Humidity 63%
Rainfall 0.00 in
Snow Depth Not available.
6:54 AM 5:30 PM
Waning Crescent, 0% visible
METAR KCIR 081255Z AUTO 27009KT 10SM SCT045 BKN050 OVC060 03/M01 A2983 RMK AO2 T00291011
Pressure 29.83 in
Visibility 10.0 miles
Clouds Scattered Clouds 4500 ft
Mostly Cloudy 5000 ft
Overcast 6000 ft
Windchill 33 °F
Dew Point 26 °F
Humidity 63%
Rainfall 0.00 in
Snow Depth Not available.
6:54 AM 5:30 PM
Waning Crescent, 0% visible
METAR KCIR 081255Z AUTO 27009KT 10SM SCT045 BKN050 OVC060 03/M01 A2983 RMK AO2 T00291011

10-Day Weather Forecast

Almanac

Astronomy

Feb. 08, 2016 Rise Set
Actual Time
Civil Twilight
Nautical Twilight
Astronomical Twilight
Moon
Length of Visible Light
Length of Day
Tomorrow will be .
, % of the Moon is Illuminated

Today's Extremes

State Highs State Lows

Community

WunderPhotos

Upload Photos

1,891,434 photos uploaded!

WunderBlog® & News

Nearby

Air Quality

  Air Quality AQ Index Pollutant
Not available.

Snow Depth

Station Depth Elevation

Earthquake Activity

City Distance Mag. Time & Date
Minimum magnitude displayed is 2.5.

Coastal Water Temperatures

Place Temperature

Stations

Nearby Weather Stations

Station Location Temp. Windchill Dew Point Humidity Wind Precip. Elev Updated Type
                   

Watches & Warnings

There are currently no watches in effect.